EFHKEFTU

Guest
Details From EFHK - Helsinki Vantaa
To EFTU - Turku
Flight Number -
Tags generated
Created
Modified
Stats Distance 81 nm / 149 km
Max Altitude 7,400 ft / 2,256 m
Waypoints 3
Social Downloads 13
Likes 0
Share VATSIM

Download

Looking for another format? Having issues loading an existing format? Contact us
Advertisement - Login to hide

Notes

Basic altitude profile: - Ascent Rate: 1000ft/min - Ascent Speed: 130kts - Cruise Altitude: 11000ft - Cruise Speed: 200kts - Descent Rate: 1000ft/min - Descent Speed: 120kts

Route

EFHK MEDOT EFTU

ID Type Via Altitude Latitude Longitude Leg Dist Tot Dist Heading (true) Name
O EFHK APT - 0 ft / 0 m 60.32057˚ 24.95267˚ - 0 nm - Helsinki Vantaa
MEDOT FIX - 7,400 ft / 2,256 m 60.44056˚ 23.09222˚ 55 nm 55 nm 278° / 277° -
O EFTU APT - 0 ft / 0 m 60.51412˚ 22.26281˚ 24 nm 80 nm 281° / 280° Turku

Altitude Profile

Advertisement - Login to hide

EFHK

Details ICAO EFHK (HEL)
Name Helsinki Vantaa
Region Finland
Timezone Europe/Helsinki (UTC+2.0)
Stats Elevation 179 ft / 55 m (AMSL)
Location 60.320569° 24.952668°
Runways 3
Magnetic Variation 8.952° E

METAR

EFHK 110350Z 12006KT 9999 SCT012 BKN045 00/M01 Q0998 NOSIG

Decode

TAF

TAF TAF EFHK 110228Z 1103/1203 15009KT 9999 BKN010 BECMG 1103/1105 SCT010 BKN040 TEMPO 1200/1203 4000 -SN BKN010

Decode

Departure Runways

ID Width Length Bearing (true) Bearing (mag) Surface Threshold Offset Overrun Length
04L 197 ft / 60 m 9,817 ft / 2,992 m 47.43° 38.48° Asphalt 800 ft / 244 m 0 ft / 0 m
04R 197 ft / 60 m 10,472 ft / 3,192 m 47.46° 38.51° Asphalt 262 ft / 80 m 0 ft / 0 m
15 197 ft / 60 m 9,497 ft / 2,895 m 153.08° 144.13° Asphalt 0 ft / 0 m 198 ft / 60 m
22L 197 ft / 60 m 10,472 ft / 3,192 m 227.50° 218.55° Asphalt 0 ft / 0 m 197 ft / 60 m
22R 197 ft / 60 m 9,817 ft / 2,992 m 227.46° 218.51° Asphalt 912 ft / 278 m 0 ft / 0 m
33 197 ft / 60 m 9,497 ft / 2,895 m 333.10° 324.15° Asphalt 0 ft / 0 m 197 ft / 60 m

EFTU

Details ICAO EFTU (TKU)
Name Turku
Region Finland
Timezone Europe/Helsinki (UTC+2.0)
Stats Elevation 161 ft / 49 m (AMSL)
Location 60.514115° 22.262812°
Runways 1
Magnetic Variation 7.972° E

METAR

EFTU 110350Z AUTO 11006KT 9999 SCT035/// BKN041/// 00/M01 Q0995

Decode

TAF

TAF EFTU 110228Z 1103/1203 13006KT 9999 FEW004 BKN030 TEMPO 1103/1107 4000 -SHSNRA SCT020CB TEMPO 1120/1203 3000 -SN BKN010

Decode

Destination Runways

ID Width Length Bearing (true) Bearing (mag) Surface Threshold Offset Overrun Length
08 197 ft / 60 m 8,175 ft / 2,492 m 84.82° 76.85° Asphalt 0 ft / 0 m 0 ft / 0 m
26 197 ft / 60 m 8,175 ft / 2,492 m 264.86° 256.89° Asphalt 0 ft / 0 m 0 ft / 0 m

Approach Navaids

Runway Type Ident Frequency Range Bearing (true) Bearing (mag) Slope Elevation
26 Localiser TU 109.50 MHz 18 nm / 33 km 264.82° 256.85° - 161 ft / 49 m (AMSL)
26 Glidescope TU 109.50 MHz 10 nm / 19 km 264.84° 256.87° 3.00° 161 ft / 49 m (AMSL)
26 DME TU 109.50 MHz 18 nm / 33 km - - - 200 ft / 61 m (AMSL)

Popular Alternatives